Time,TemperatureF,DewpointF,PressureIn,WindDirection,WindDirectionDegrees,WindSpeedMPH,WindSpeedGustMPH,Humidity,HourlyPrecipIn,Conditions,Clouds,dailyrainin,SoftwareType,DateUTC
2013-01-26 00:00:00,38.0,37.0,30.14,WNW,290,16.0,18.0,98,-99.99,,,-99.99,,2013-01-26 05:00:00,
2013-01-26 00:22:00,38.0,37.0,30.14,WNW,290,16.0,18.0,98,-99.99,,,-99.99,,2013-01-26 05:22:00,
2013-01-26 00:32:00,38.0,37.0,30.14,WNW,290,16.0,18.0,98,-99.99,,,-99.99,,2013-01-26 05:32:00,
2013-01-26 00:41:00,38.0,37.0,30.14,WNW,290,16.0,18.0,98,-99.99,,,-99.99,,2013-01-26 05:41:00,
2013-01-26 00:52:00,38.0,37.0,30.14,WNW,290,16.0,18.0,98,-99.99,,,-99.99,,2013-01-26 05:52:00,
2013-01-26 01:00:00,38.0,34.0,30.14,WNW,290,16.0,20.0,87,-99.99,,,-99.99,,2013-01-26 06:00:00,
2013-01-26 01:21:00,38.0,34.0,30.14,WNW,290,16.0,20.0,87,-99.99,,,-99.99,,2013-01-26 06:21:00,
2013-01-26 01:31:00,38.0,34.0,30.14,WNW,290,16.0,20.0,87,-99.99,,,-99.99,,2013-01-26 06:31:00,
2013-01-26 01:41:00,38.0,34.0,30.14,WNW,290,16.0,20.0,87,-99.99,,,-99.99,,2013-01-26 06:41:00,
2013-01-26 01:51:00,38.0,34.0,30.14,WNW,290,16.0,20.0,87,-99.99,,,-99.99,,2013-01-26 06:51:00,
2013-01-26 02:00:00,36.0,32.0,30.14,NW,310,15.0,18.0,85,-99.99,,,-99.99,,2013-01-26 07:00:00,
2013-01-26 02:21:00,36.0,32.0,30.14,NW,310,15.0,18.0,85,-99.99,,,-99.99,,2013-01-26 07:21:00,
2013-01-26 02:32:00,36.0,32.0,30.14,NW,310,15.0,18.0,85,-99.99,,,-99.99,,2013-01-26 07:32:00,
2013-01-26 02:41:00,36.0,32.0,30.14,NW,310,15.0,18.0,85,-99.99,,,-99.99,,2013-01-26 07:41:00,
2013-01-26 02:51:00,36.0,32.0,30.14,NW,310,15.0,18.0,85,-99.99,,,-99.99,,2013-01-26 07:51:00,
2013-01-26 03:00:00,36.0,31.0,30.13,NW,310,15.0,17.0,81,-99.99,,,-99.99,,2013-01-26 08:00:00,
2013-01-26 03:21:00,36.0,31.0,30.13,NW,310,15.0,17.0,81,-99.99,,,-99.99,,2013-01-26 08:21:00,
2013-01-26 03:31:00,36.0,31.0,30.13,NW,310,15.0,17.0,81,-99.99,,,-99.99,,2013-01-26 08:31:00,
2013-01-26 03:41:00,36.0,31.0,30.13,NW,310,15.0,17.0,81,-99.99,,,-99.99,,2013-01-26 08:41:00,
2013-01-26 03:53:00,36.0,31.0,30.13,NW,310,15.0,17.0,81,-99.99,,,-99.99,,2013-01-26 08:53:00,
2013-01-26 04:00:00,36.0,31.0,30.13,WNW,290,14.0,16.0,82,-99.99,,,-99.99,,2013-01-26 09:00:00,
2013-01-26 04:22:00,36.0,31.0,30.13,WNW,290,14.0,16.0,82,-99.99,,,-99.99,,2013-01-26 09:22:00,
2013-01-26 04:31:00,36.0,31.0,30.13,WNW,290,14.0,16.0,82,-99.99,,,-99.99,,2013-01-26 09:31:00,
2013-01-26 04:42:00,36.0,31.0,30.13,WNW,290,14.0,16.0,82,-99.99,,,-99.99,,2013-01-26 09:42:00,
2013-01-26 04:51:00,36.0,31.0,30.13,WNW,290,14.0,16.0,82,-99.99,,,-99.99,,2013-01-26 09:51:00,
2013-01-26 05:00:00,34.0,29.0,30.15,NW,320,11.0,14.0,83,-99.99,,,-99.99,,2013-01-26 10:00:00,
2013-01-26 05:21:00,34.0,29.0,30.15,NW,320,11.0,14.0,83,-99.99,,,-99.99,,2013-01-26 10:21:00,
2013-01-26 05:31:00,34.0,29.0,30.15,NW,320,11.0,14.0,83,-99.99,,,-99.99,,2013-01-26 10:31:00,
2013-01-26 05:42:00,34.0,29.0,30.15,NW,320,11.0,14.0,83,-99.99,,,-99.99,,2013-01-26 10:42:00,
2013-01-26 05:52:00,34.0,29.0,30.15,NW,320,11.0,14.0,83,-99.99,,,-99.99,,2013-01-26 10:52:00,
2013-01-26 06:00:00,33.0,30.0,30.16,NNW,330,11.0,15.0,87,-99.99,,,-99.99,,2013-01-26 11:00:00,
2013-01-26 06:21:00,33.0,30.0,30.16,NNW,330,11.0,15.0,87,-99.99,,,-99.99,,2013-01-26 11:21:00,
2013-01-26 06:31:00,33.0,30.0,30.16,NNW,330,11.0,15.0,87,-99.99,,,-99.99,,2013-01-26 11:31:00,
2013-01-26 06:41:00,33.0,30.0,30.16,NNW,330,11.0,15.0,87,-99.99,,,-99.99,,2013-01-26 11:41:00,
2013-01-26 06:52:00,33.0,30.0,30.16,NNW,330,11.0,15.0,87,-99.99,,,-99.99,,2013-01-26 11:52:00,
2013-01-26 07:00:00,32.0,31.0,30.17,North,350,10.0,11.0,94,-99.99,,,-99.99,,2013-01-26 12:00:00,
2013-01-26 07:22:00,32.0,31.0,30.17,North,350,10.0,11.0,94,-99.99,,,-99.99,,2013-01-26 12:22:00,
2013-01-26 07:32:00,32.0,31.0,30.17,North,350,10.0,11.0,94,-99.99,,,-99.99,,2013-01-26 12:32:00,
2013-01-26 07:42:00,32.0,31.0,30.17,North,350,10.0,11.0,94,-99.99,,,-99.99,,2013-01-26 12:42:00,
2013-01-26 07:52:00,32.0,31.0,30.17,North,350,10.0,11.0,94,-99.99,,,-99.99,,2013-01-26 12:52:00,
2013-01-26 08:00:00,32.0,30.0,30.19,North,350,13.0,15.0,92,-99.99,,,-99.99,,2013-01-26 13:00:00,
2013-01-26 08:22:00,32.0,30.0,30.19,North,350,13.0,15.0,92,-99.99,,,-99.99,,2013-01-26 13:22:00,
2013-01-26 08:32:00,32.0,30.0,30.19,North,350,13.0,15.0,92,-99.99,,,-99.99,,2013-01-26 13:32:00,
2013-01-26 08:42:00,32.0,30.0,30.19,North,350,13.0,15.0,92,-99.99,,,-99.99,,2013-01-26 13:42:00,
2013-01-26 08:52:00,32.0,30.0,30.19,North,350,13.0,15.0,92,-99.99,,,-99.99,,2013-01-26 13:52:00,
2013-01-26 09:00:00,33.0,31.0,30.20,North,10,13.0,16.0,91,-99.99,,,-99.99,,2013-01-26 14:00:00,
2013-01-26 09:21:00,33.0,31.0,30.20,North,10,13.0,16.0,91,-99.99,,,-99.99,,2013-01-26 14:21:00,
2013-01-26 09:31:00,33.0,31.0,30.20,North,10,13.0,16.0,91,-99.99,,,-99.99,,2013-01-26 14:31:00,
2013-01-26 09:42:00,33.0,31.0,30.20,North,10,13.0,16.0,91,-99.99,,,-99.99,,2013-01-26 14:42:00,
2013-01-26 09:52:00,33.0,31.0,30.20,North,10,13.0,16.0,91,-99.99,,,-99.99,,2013-01-26 14:52:00,
2013-01-26 10:00:00,34.0,33.0,30.23,NNE,30,10.0,13.0,97,-99.99,,,-99.99,,2013-01-26 15:00:00,
2013-01-26 10:21:00,34.0,33.0,30.23,NNE,30,10.0,13.0,97,-99.99,,,-99.99,,2013-01-26 15:21:00,
2013-01-26 10:31:00,34.0,33.0,30.23,NNE,30,10.0,13.0,97,-99.99,,,-99.99,,2013-01-26 15:31:00,
2013-01-26 10:42:00,34.0,33.0,30.23,NNE,30,10.0,13.0,97,-99.99,,,-99.99,,2013-01-26 15:42:00,
2013-01-26 10:52:00,34.0,33.0,30.23,NNE,30,10.0,13.0,97,-99.99,,,-99.99,,2013-01-26 15:52:00,
2013-01-26 11:00:00,37.0,35.0,30.24,North,350,9.0,11.0,92,-99.99,,,-99.99,,2013-01-26 16:00:00,
2013-01-26 11:21:00,37.0,35.0,30.24,North,350,9.0,11.0,92,-99.99,,,-99.99,,2013-01-26 16:21:00,
2013-01-26 11:31:00,37.0,35.0,30.24,North,350,9.0,11.0,92,-99.99,,,-99.99,,2013-01-26 16:31:00,
2013-01-26 11:41:00,37.0,35.0,30.24,North,350,9.0,11.0,92,-99.99,,,-99.99,,2013-01-26 16:41:00,
2013-01-26 11:52:00,37.0,35.0,30.24,North,350,9.0,11.0,92,-99.99,,,-99.99,,2013-01-26 16:52:00,
2013-01-26 12:00:00,36.0,34.0,30.24,North,10,13.0,15.0,90,-99.99,,,-99.99,,2013-01-26 17:00:00,
2013-01-26 12:21:00,36.0,34.0,30.24,North,10,13.0,15.0,90,-99.99,,,-99.99,,2013-01-26 17:21:00,
2013-01-26 12:32:00,36.0,34.0,30.24,North,10,13.0,15.0,90,-99.99,,,-99.99,,2013-01-26 17:32:00,
2013-01-26 12:41:00,36.0,34.0,30.24,North,10,13.0,15.0,90,-99.99,,,-99.99,,2013-01-26 17:41:00,
2013-01-26 12:52:00,36.0,34.0,30.24,North,10,13.0,15.0,90,-99.99,,,-99.99,,2013-01-26 17:52:00,
2013-01-26 13:00:00,37.0,33.0,30.23,NNE,20,14.0,18.0,87,-99.99,,,-99.99,,2013-01-26 18:00:00,
2013-01-26 13:21:00,37.0,33.0,30.23,NNE,20,14.0,18.0,87,-99.99,,,-99.99,,2013-01-26 18:21:00,
2013-01-26 13:32:00,37.0,33.0,30.23,NNE,20,14.0,18.0,87,-99.99,,,-99.99,,2013-01-26 18:32:00,
2013-01-26 13:41:00,37.0,33.0,30.23,NNE,20,14.0,18.0,87,-99.99,,,-99.99,,2013-01-26 18:41:00,
2013-01-26 13:52:00,37.0,33.0,30.23,NNE,20,14.0,18.0,87,-99.99,,,-99.99,,2013-01-26 18:52:00,
2013-01-26 14:00:00,35.0,33.0,30.23,NNE,20,14.0,17.0,89,-99.99,,,-99.99,,2013-01-26 19:00:00,
2013-01-26 14:22:00,35.0,33.0,30.23,NNE,20,14.0,17.0,89,-99.99,,,-99.99,,2013-01-26 19:22:00,
2013-01-26 14:32:00,35.0,33.0,30.23,NNE,20,14.0,17.0,89,-99.99,,,-99.99,,2013-01-26 19:32:00,
2013-01-26 14:42:00,35.0,33.0,30.23,NNE,20,14.0,17.0,89,-99.99,,,-99.99,,2013-01-26 19:42:00,
2013-01-26 14:52:00,35.0,33.0,30.23,NNE,20,14.0,17.0,89,-99.99,,,-99.99,,2013-01-26 19:52:00,
2013-01-26 15:00:00,36.0,33.0,30.23,North,10,13.0,15.0,91,-99.99,,,-99.99,,2013-01-26 20:00:00,
2013-01-26 15:21:00,36.0,33.0,30.23,North,10,13.0,15.0,91,-99.99,,,-99.99,,2013-01-26 20:21:00,
2013-01-26 15:31:00,36.0,33.0,30.23,North,10,13.0,15.0,91,-99.99,,,-99.99,,2013-01-26 20:31:00,
2013-01-26 15:41:00,36.0,33.0,30.23,North,10,13.0,15.0,91,-99.99,,,-99.99,,2013-01-26 20:41:00,
2013-01-26 15:52:00,36.0,33.0,30.23,North,10,13.0,15.0,91,-99.99,,,-99.99,,2013-01-26 20:52:00,
2013-01-26 16:00:00,35.0,33.0,30.25,North,360,13.0,14.0,91,-99.99,,,-99.99,,2013-01-26 21:00:00,
2013-01-26 16:22:00,35.0,33.0,30.25,North,360,13.0,14.0,91,-99.99,,,-99.99,,2013-01-26 21:22:00,
2013-01-26 16:31:00,35.0,33.0,30.25,North,360,13.0,14.0,91,-99.99,,,-99.99,,2013-01-26 21:31:00,
2013-01-26 16:42:00,35.0,33.0,30.25,North,360,13.0,14.0,91,-99.99,,,-99.99,,2013-01-26 21:42:00,
2013-01-26 16:51:00,35.0,33.0,30.25,North,360,13.0,14.0,91,-99.99,,,-99.99,,2013-01-26 21:51:00,
2013-01-26 17:00:00,34.0,33.0,30.27,North,360,13.0,16.0,93,-99.99,,,-99.99,,2013-01-26 22:00:00,
2013-01-26 17:21:00,34.0,33.0,30.27,North,360,13.0,16.0,93,-99.99,,,-99.99,,2013-01-26 22:21:00,
2013-01-26 17:31:00,34.0,33.0,30.27,North,360,13.0,16.0,93,-99.99,,,-99.99,,2013-01-26 22:31:00,
2013-01-26 17:41:00,34.0,33.0,30.27,North,360,13.0,16.0,93,-99.99,,,-99.99,,2013-01-26 22:41:00,
2013-01-26 17:51:00,34.0,33.0,30.27,North,360,13.0,16.0,93,-99.99,,,-99.99,,2013-01-26 22:51:00,
2013-01-26 18:00:00,34.0,33.0,30.30,North,350,13.0,15.0,94,-99.99,,,-99.99,,2013-01-26 23:00:00,
2013-01-26 18:21:00,34.0,33.0,30.30,North,350,13.0,15.0,94,-99.99,,,-99.99,,2013-01-26 23:21:00,
2013-01-26 18:32:00,34.0,33.0,30.30,North,350,13.0,15.0,94,-99.99,,,-99.99,,2013-01-26 23:32:00,
2013-01-26 18:41:00,34.0,33.0,30.30,North,350,13.0,15.0,94,-99.99,,,-99.99,,2013-01-26 23:41:00,
2013-01-26 18:51:00,34.0,33.0,30.30,North,350,13.0,15.0,94,-99.99,,,-99.99,,2013-01-26 23:51:00,
2013-01-26 19:00:00,34.0,31.0,30.32,North,360,13.0,15.0,91,-99.99,,,-99.99,,2013-01-27 00:00:00,
2013-01-26 19:21:00,34.0,31.0,30.32,North,360,13.0,15.0,91,-99.99,,,-99.99,,2013-01-27 00:21:00,
2013-01-26 19:31:00,34.0,31.0,30.32,North,360,13.0,15.0,91,-99.99,,,-99.99,,2013-01-27 00:31:00,
2013-01-26 19:41:00,34.0,31.0,30.32,North,360,13.0,15.0,91,-99.99,,,-99.99,,2013-01-27 00:41:00,
2013-01-26 19:51:00,34.0,31.0,30.32,North,360,13.0,15.0,91,-99.99,,,-99.99,,2013-01-27 00:51:00,
2013-01-26 20:00:00,34.0,32.0,30.32,NNE,20,11.0,14.0,91,-99.99,,,-99.99,,2013-01-27 01:00:00,
2013-01-26 20:21:00,34.0,32.0,30.32,NNE,20,11.0,14.0,91,-99.99,,,-99.99,,2013-01-27 01:21:00,
2013-01-26 20:31:00,34.0,32.0,30.32,NNE,20,11.0,14.0,91,-99.99,,,-99.99,,2013-01-27 01:31:00,
2013-01-26 20:41:00,34.0,32.0,30.32,NNE,20,11.0,14.0,91,-99.99,,,-99.99,,2013-01-27 01:41:00,
2013-01-26 20:51:00,34.0,32.0,30.32,NNE,20,11.0,14.0,91,-99.99,,,-99.99,,2013-01-27 01:51:00,
2013-01-26 21:00:00,34.0,32.0,30.35,North,360,13.0,15.0,89,-99.99,,,-99.99,,2013-01-27 02:00:00,
2013-01-26 21:21:00,34.0,32.0,30.35,North,360,13.0,15.0,89,-99.99,,,-99.99,,2013-01-27 02:21:00,
2013-01-26 21:31:00,34.0,32.0,30.35,North,360,13.0,15.0,89,-99.99,,,-99.99,,2013-01-27 02:31:00,
2013-01-26 21:41:00,34.0,32.0,30.35,North,360,13.0,15.0,89,-99.99,,,-99.99,,2013-01-27 02:41:00,
2013-01-26 21:52:00,34.0,32.0,30.35,North,360,13.0,15.0,89,-99.99,,,-99.99,,2013-01-27 02:52:00,
2013-01-26 22:00:00,35.0,32.0,30.36,North,360,13.0,16.0,89,-99.99,,,-99.99,,2013-01-27 03:00:00,
2013-01-26 22:31:00,35.0,32.0,30.36,North,360,13.0,16.0,89,-99.99,,,-99.99,,2013-01-27 03:31:00,
2013-01-26 22:41:00,35.0,32.0,30.36,North,360,13.0,16.0,89,-99.99,,,-99.99,,2013-01-27 03:41:00,
2013-01-26 22:51:00,35.0,32.0,30.36,North,360,13.0,16.0,89,-99.99,,,-99.99,,2013-01-27 03:51:00,
2013-01-26 23:00:00,35.0,31.0,30.38,North,10,17.0,21.0,87,-99.99,,,-99.99,,2013-01-27 04:00:00,
2013-01-26 23:21:00,35.0,31.0,30.38,North,10,17.0,21.0,87,-99.99,,,-99.99,,2013-01-27 04:21:00,
2013-01-26 23:31:00,35.0,31.0,30.38,North,10,17.0,21.0,87,-99.99,,,-99.99,,2013-01-27 04:31:00,
2013-01-26 23:41:00,35.0,31.0,30.38,North,10,17.0,21.0,87,-99.99,,,-99.99,,2013-01-27 04:41:00,
2013-01-26 23:51:00,35.0,31.0,30.38,North,10,17.0,21.0,87,-99.99,,,-99.99,,2013-01-27 04:51:00,